Flight Track Log - Related Links

Times and Time Zones

All times are in EDT time to prevent confusion due to time zone crossing. See the DAL2259 flight status page for this flight to view local times or setup timezone preferences in your user account.

Time Position Orientation Groundspeed Altitude Reporting Facility
EDT Latitude Longitude Course Direction KTS MPH feet Rate Location/Type
Tue 12:24:14 PM 44.8833 -93.2667 240° Southwest 173 199 2,500  Level Minneapolis TRACON
Tue 12:25:42 PM 44.8564 -93.3964 254° West 267 307 5,700 2,497 Climbing Minneapolis Center
Tue 12:26:00 PM 44.6984 -93.6587 243° Southwest  Level FlightAware Approximate
Tue 12:26:43 PM 44.8069 -93.4772 229° Southwest 276 318 8,700  Level Minneapolis Center
Tue 12:27:00 PM 44.6399 -93.8044 240° Southwest  Level FlightAware Approximate
Tue 12:27:45 PM 44.7544 -93.5625 229° Southwest 286 329 10,900  Level Minneapolis Center
Tue 12:28:00 PM 44.5804 -93.9491 241° Southwest  Level FlightAware Approximate
Tue 12:28:47 PM 44.6772 -93.6900 230° Southwest 360 414 13,000  Level Minneapolis Center
Tue 12:29:00 PM 44.5213 -94.0939 240° Southwest  Level FlightAware Approximate
Tue 12:29:49 PM 44.6083 -93.8017 229° Southwest 377 434 15,100  Level Minneapolis Center
Tue 12:30:51 PM 44.5403 -93.9258 232° Southwest 400 460 17,100 1,756 Climbing Minneapolis Center
Tue 12:31:52 PM 44.4714 -94.0572 234° Southwest 421 484 18,700 1,366 Climbing Minneapolis Center
Tue 12:32:54 PM 44.3972 -94.1975 234° Southwest 447 514 19,900 1,694 Climbing Minneapolis Center
Tue 12:33:56 PM 44.3192 -94.3450 234° Southwest 470 541 22,200 1,887 Climbing Minneapolis Center
Tue 12:34:58 PM 44.2422 -94.4861 233° Southwest 467 537 23,800 1,113 Climbing Minneapolis Center
Tue 12:36:00 PM 44.1464 -94.6686 234° Southwest 486 559 24,500 919 Climbing Minneapolis Center
Tue 12:37:02 PM 44.0608 -94.8264 233° Southwest 507 583 25,700 1,355 Climbing Minneapolis Center
Tue 12:38:04 PM 43.9750 -94.9844 233° Southwest 511 588 27,300 1,500 Climbing Minneapolis Center
Tue 12:39:06 PM 43.8889 -95.1411 233° Southwest 512 589 28,800 1,258 Climbing Minneapolis Center
Tue 12:40:08 PM 43.8031 -95.2964 233° Southwest 511 588 29,900 581 Climbing Minneapolis Center
Tue 12:41:10 PM 43.7181 -95.4517 233° Southwest 511 588 30,000 49 Climbing Minneapolis Center
Tue 12:42:11 PM 43.6233 -95.6403 235° Southwest 505 581 30,000  Level Minneapolis Center
Tue 12:43:13 PM 43.5656 -95.8100 245° Southwest 495 570 30,000  Level Minneapolis Center
Tue 12:44:15 PM 43.5008 -95.9869 243° Southwest 492 566 30,000  Level Minneapolis Center
Tue 12:45:17 PM 43.4403 -96.1561 244° Southwest 491 565 30,000  Level Minneapolis Center
Tue 12:47:21 PM 43.3181 -96.4822 243° Southwest 485 558 30,000  Level Minneapolis Center
Tue 12:48:23 PM 43.2592 -96.6444 244° Southwest 483 556 30,000  Level Minneapolis Center
Tue 12:49:25 PM 43.1986 -96.8053 243° Southwest 480 552 30,000  Level Minneapolis Center
Tue 12:51:30 PM 43.0667 -97.1544 243° Southwest 472 543 30,000  Level Minneapolis Center
Tue 12:52:32 PM 43.0064 -97.3153 243° Southwest 472 543 30,000  Level Minneapolis Center
Tue 12:53:34 PM 42.9439 -97.4753 242° Southwest 474 545 30,000  Level Minneapolis Center
Tue 12:54:36 PM 42.8842 -97.6325 243° Southwest 474 545 30,000  Level Minneapolis Center
Tue 12:55:38 PM 42.8231 -97.7897 242° Southwest 474 545 30,000  Level Minneapolis Center
Tue 12:57:29 PM 42.7064 -98.0914 242° Southwest 474 545 30,000  Level Denver Center
Tue 12:58:44 PM 42.6197 -98.3094 242° Southwest 472 543 30,000  Level Minneapolis Center
Tue 01:00:35 PM 42.5078 -98.5925 242° Southwest 474 545 30,000  Level Denver Center
Tue 01:01:37 PM 42.4497 -98.7514 244° Southwest 473 544 30,000  Level Denver Center
Tue 01:02:39 PM 42.4039 -98.9114 249° West 462 532 30,000  Level Denver Center
Tue 01:03:41 PM 42.3556 -99.0708 248° West 462 532 30,000  Level Denver Center
Tue 01:04:56 PM 42.2900 -99.2931 248° West 461 531 30,000  Level Minneapolis Center
Tue 01:05:46 PM 42.2503 -99.4208 247° West 460 529 30,000  Level Denver Center
Tue 01:06:48 PM 42.2025 -99.5794 248° West 459 528 30,000 339 Level Denver Center
Tue 01:07:50 PM 42.1544 -99.7361 248° West 455 524 30,700 968 Climbing Denver Center
Tue 01:08:52 PM 42.0994 -99.9133 247° West 457 526 32,000 1,113 Climbing Denver Center
Tue 01:09:54 PM 42.0664 -100.0664 254° West 455 524 33,000 1,030 Climbing Denver Center
Tue 01:12:10 PM 42.0586 -100.4372 269° West 427 491 35,400 968 Climbing Minneapolis Center
Tue 01:13:00 PM 42.0567 -100.5706 269° West 421 484 36,000 321 Climbing Denver Center
Tue 01:14:02 PM 42.0539 -100.7167 269° West 414 476 36,000  Level Denver Center
Tue 01:16:07 PM 42.0467 -101.0400 268° West 420 483 36,000  Level Denver Center
Tue 01:17:09 PM 42.0439 -101.2147 269° West 420 483 36,000  Level Denver Center
Tue 01:18:11 PM 42.0400 -101.3664 268° West 421 484 36,000  Level Denver Center
Tue 01:19:13 PM 42.0350 -101.5167 267° West 421 484 36,000  Level Denver Center
Tue 01:20:15 PM 42.0311 -101.6903 268° West 421 484 36,000  Level Denver Center
Tue 01:21:17 PM 42.0264 -101.8397 268° West 421 484 36,000  Level Denver Center
Tue 01:22:19 PM 42.0206 -102.0164 268° West 421 484 36,000  Level Denver Center
Tue 01:23:21 PM 42.0175 -102.1653 268° West 421 484 36,000  Level Denver Center
Tue 01:24:23 PM 42.0106 -102.3511 267° West 421 484 36,000  Level Denver Center
Tue 01:25:25 PM 42.0047 -102.5033 267° West 425 489 36,000  Level Denver Center
Tue 01:26:27 PM 41.9997 -102.6561 268° West 425 489 36,000  Level Denver Center
Tue 01:27:29 PM 41.9925 -102.8325 267° West 425 489 36,000  Level Denver Center
Tue 01:28:32 PM 41.9875 -102.9842 268° West 425 489 36,000  Level Denver Center
Tue 01:29:34 PM 41.9803 -103.1606 267° West 425 489 36,000  Level Denver Center
Tue 01:31:55 PM 41.9633 -103.5356 266° West 424 488 36,000  Level Salt Lake Center
Tue 01:32:40 PM 41.9592 -103.6394 267° West 422 486 36,000  Level Denver Center
Tue 01:33:42 PM 41.9511 -103.8136 266° West 422 486 36,000  Level Denver Center
Tue 01:34:44 PM 41.9436 -103.9644 266° West 422 486 36,000  Level Denver Center
Tue 01:35:46 PM 41.9353 -104.1406 266° West 422 486 36,000  Level Denver Center
Tue 01:36:48 PM 41.9278 -104.2900 266° West 421 484 36,000  Level Denver Center
Tue 01:37:50 PM 41.9186 -104.4669 266° West 422 486 36,000  Level Denver Center
Tue 01:38:52 PM 41.9108 -104.6172 266° West 421 484 36,000  Level Denver Center
Tue 01:39:55 PM 41.9022 -104.7667 266° West 421 484 36,000  Level Denver Center
Tue 01:41:59 PM 41.8847 -105.0897 266° West 420 483 36,000  Level Denver Center
Tue 01:43:01 PM 41.8742 -105.2625 265° West 419 482 36,000  Level Denver Center
Tue 01:44:03 PM 41.8653 -105.4117 265° West 419 482 36,000  Level Denver Center
Tue 01:45:05 PM 41.8547 -105.5833 265° West 418 481 36,000  Level Denver Center
Tue 01:46:07 PM 41.8453 -105.7319 265° West 417 480 36,000  Level Denver Center
Tue 01:47:09 PM 41.8350 -105.9053 266° West 418 481 36,000  Level Denver Center
Tue 01:48:11 PM 41.8253 -106.0544 265° West 418 481 36,000  Level Denver Center
Tue 01:49:13 PM 41.8125 -106.2272 264° West 418 481 36,000  Level Denver Center
Tue 01:50:15 PM 41.8028 -106.3756 265° West 416 479 36,000  Level Denver Center
Tue 01:51:17 PM 41.7917 -106.5325 265° West 419 482 36,000  Level Denver Center
Tue 01:52:19 PM 41.7789 -106.7033 264° West 418 481 36,000  Level Denver Center
Tue 01:53:22 PM 41.7692 -106.8503 265° West 417 480 36,000  Level Denver Center
Tue 01:54:24 PM 41.7567 -107.0214 264° West 416 479 36,000  Level Denver Center
Tue 01:56:28 PM 41.7331 -107.3403 264° West 416 479 36,000  Level Denver Center
Tue 01:57:30 PM 41.7206 -107.4869 264° West 416 479 36,000  Level Denver Center
Tue 01:58:32 PM 41.7092 -107.6572 265° West 415 478 36,000  Level Denver Center
Tue 01:59:34 PM 41.7150 -107.8033 273° West 412 474 36,000  Level Denver Center
Tue 02:00:36 PM 41.7208 -107.9736 273° West 412 474 36,000  Level Denver Center
Tue 02:01:38 PM 41.7267 -108.1194 273° West 412 474 36,000  Level Denver Center
Tue 02:02:40 PM 41.7311 -108.2644 272° West 411 473 36,000  Level Denver Center
Tue 02:03:54 PM 41.7364 -108.4594 272° West 411 473 36,000  Level Salt Lake Center
Tue 02:04:56 PM 41.7425 -108.6286 273° West 410 472 36,000  Level Salt Lake Center
Tue 02:05:58 PM 41.7461 -108.7733 272° West 410 472 36,000  Level Salt Lake Center
Tue 02:08:02 PM 41.7556 -109.0894 272° West 412 474 36,000  Level Salt Lake Center
Tue 02:09:04 PM 41.7592 -109.2600 272° West 413 475 36,000  Level Salt Lake Center
Tue 02:10:06 PM 41.7625 -109.4064 272° West 413 475 36,000  Level Salt Lake Center
Tue 02:11:08 PM 41.7667 -109.5761 272° West 413 475 36,000  Level Salt Lake Center
Tue 02:12:10 PM 41.7694 -109.7214 272° West 413 475 36,000 -484 Level Salt Lake Center
Tue 02:13:12 PM 41.7717 -109.8908 271° West 411 473 35,000 -968 Descending Salt Lake Center
Tue 02:14:14 PM 41.7747 -110.0372 272° West 411 473 34,000 -1,016 Descending Salt Lake Center
Tue 02:15:16 PM 41.7781 -110.2106 272° West 415 478 32,900 -960 Descending Salt Lake Center
Tue 02:16:19 PM 41.7803 -110.3625 271° West 421 484 32,000 -960 Descending Salt Lake Center
Tue 02:17:21 PM 41.7831 -110.5386 271° West 423 487 30,900 -968 Descending Salt Lake Center
Tue 02:18:23 PM 41.7842 -110.6906 271° West 424 488 30,000 -435 Descending Salt Lake Center
Tue 02:19:25 PM 41.7867 -110.8722 271° West 433 498 30,000  Level Salt Lake Center
Tue 02:20:27 PM 41.7878 -111.0136 271° West 433 498 30,000 -161 Level Salt Lake Center
Tue 02:22:31 PM 41.7900 -111.3664 271° West 433 498 29,500 -1,065 Descending Salt Lake Center
Tue 02:23:33 PM 41.7900 -111.5250 270° West 432 497 26,700 -2,371 Descending Salt Lake Center
Tue 02:24:35 PM 41.7917 -111.6781 271° West 418 481 24,600 -2,032 Descending Salt Lake Center
Tue 02:25:37 PM 41.7908 -111.8031 270° West 342 394 22,500 -2,565 Descending Salt Lake Center
Tue 02:26:39 PM 41.7914 -111.9475 270° West 326 375 19,300 -2,710 Descending Salt Lake Center
Tue 02:27:41 PM 41.7303 -112.0194 221° Southwest 322 371 16,900 -2,432 Descending Salt Lake Center
Tue 02:27:53 PM 41.7086 -112.0131 168° South 331 381 16,300 -1,562 Descending Salt Lake Center
Tue 02:28:54 PM 41.6214 -112.0286 188° South 317 365 15,000 -639 Descending Salt Lake Center
Tue 02:29:55 PM 41.5339 -112.0444 188° South 317 365 15,000 -609 Level Salt Lake Center
Tue 02:31:02 PM 41.4344 -112.0411 179° South 321 369 13,700 -1,168 Descending Salt Lake Center
Tue 02:31:48 PM 41.3814 -112.0347 175° South 316 364 12,800 -836 Descending Salt Lake Center
Tue 02:33:04 PM 41.2639 -112.0053 169° South 308 354 12,000 -823 Descending Salt Lake Center
Tue 02:33:52 PM 41.1964 -111.9950 173° South 309 356 11,100 -1,012 Descending Salt Lake Center
Tue 02:35:56 PM 41.0469 -111.9625 171° South 264 304 9,100 -1,079 Descending Salt Lake Center
Tue 02:37:01 PM 40.9689 -111.9611 179° South 230 265 7,700 -1,143 Descending Salt Lake Center
Tue 02:38:02 PM 40.9044 -111.9631 181° South 207 238 6,700 -1,140 Descending Salt Lake Center
Tue 02:39:02 PM 40.8600 -111.9622 179° South 184 212 5,400 -984 Descending Salt Lake Center
Tue 02:40:10 PM 40.8119 -111.9633 181° South 137 158 4,600 -581 Descending Salt Lake Center
Tue 02:41:06 PM 40.7842 -111.9622 178° South 136 157 4,200 -429 Descending Salt Lake Center

Login

Don't have an account? Register now (free) for customized features, flight alerts, and more!